Time;durP1;ratioP1;P1;durP2;ratioP2;P2;SDS_P1;SDS_P2;PMS_P1;PMS_P2;Temp;Humidity;BMP_temperature;BMP_pressure;BME280_temperature;BME280_humidity;BME280_pressure;Samples;Min_cycle;Max_cycle;Signal;HPM_P1;HPM_P2
2022/03/06 00:03:22;;;;;;;6.70;4.35;;;;;;;19.97;40.35;97234.06;10077890;29;20556;-56
2022/03/06 00:08:42;;;;;;;6.25;4.30;;;;;;;19.94;40.46;97233.59;10094201;29;20428;-55
2022/03/06 00:14:02;;;;;;;6.82;4.60;;;;;;;19.94;40.47;97238.22;10092619;29;20064;-56
2022/03/06 00:19:21;;;;;;;6.28;4.30;;;;;;;19.93;40.50;97236.63;10110822;29;20063;-55
2022/03/06 00:24:40;;;;;;;7.35;4.45;;;;;;;19.92;40.60;97235.81;10107906;29;20420;-55
2022/03/06 00:30:01;;;;;;;6.70;4.15;;;;;;;19.90;40.43;97238.06;10102152;29;20127;-56
2022/03/06 00:35:20;;;;;;;7.30;3.95;;;;;;;19.88;40.29;97229.47;10099799;29;20664;-55
2022/03/06 00:40:42;;;;;;;5.65;3.90;;;;;;;19.87;40.51;97222.44;10100138;29;20057;-56
2022/03/06 00:46:01;;;;;;;5.43;3.72;;;;;;;19.85;40.46;97219.25;10099813;29;20053;-56
2022/03/06 00:51:21;;;;;;;5.70;4.00;;;;;;;19.83;40.39;97221.50;10100162;29;20072;-55
2022/03/06 00:56:40;;;;;;;5.85;3.92;;;;;;;19.82;40.38;97221.81;10099288;29;20063;-55
2022/03/06 01:02:06;;;;;;;5.18;3.60;;;;;;;19.80;40.29;97219.44;10098910;29;20135;-55
2022/03/06 01:07:25;;;;;;;6.22;3.92;;;;;;;19.79;40.43;97225.94;10097767;29;20045;-56
2022/03/06 01:12:45;;;;;;;5.97;3.70;;;;;;;19.77;40.38;97225.44;10079452;29;20104;-55
2022/03/06 01:18:06;;;;;;;5.05;3.72;;;;;;;19.76;40.35;97226.59;10099297;29;20088;-56
2022/03/06 01:23:25;;;;;;;5.82;3.80;;;;;;;19.75;40.22;97224.97;10088122;29;20057;-55
2022/03/06 01:28:45;;;;;;;5.60;3.70;;;;;;;19.73;40.27;97232.59;10098903;29;20101;-56
2022/03/06 01:34:05;;;;;;;5.85;3.70;;;;;;;19.72;40.18;97233.72;10097470;29;20053;-55
2022/03/06 01:39:24;;;;;;;5.80;3.25;;;;;;;19.71;40.16;97223.97;10098077;29;20052;-56
2022/03/06 01:44:54;;;;;;;3.92;2.95;;;;;;;19.69;40.04;97232.41;10098085;29;20389;-55
2022/03/06 01:50:17;;;;;;;4.25;3.33;;;;;;;19.67;40.06;97215.69;10097610;29;20074;-55
2022/03/06 01:55:37;;;;;;;4.47;3.13;;;;;;;19.66;40.13;97224.13;10098961;29;20045;-56
2022/03/06 02:00:56;;;;;;;4.75;3.20;;;;;;;19.65;39.89;97217.94;10094015;29;20063;-56
2022/03/06 02:06:19;;;;;;;5.05;3.40;;;;;;;19.64;39.78;97223.63;10096399;29;20064;-56
2022/03/06 02:11:39;;;;;;;4.50;3.28;;;;;;;19.62;39.89;97225.88;10092939;29;20060;-56
2022/03/06 02:16:59;;;;;;;4.65;3.20;;;;;;;19.61;39.91;97221.56;10096336;29;20049;-55
2022/03/06 02:22:19;;;;;;;4.10;3.40;;;;;;;19.59;39.69;97218.41;10096074;29;20112;-55
2022/03/06 02:27:38;;;;;;;4.82;3.35;;;;;;;19.56;39.91;97215.22;10099805;29;20041;-55
2022/03/06 02:32:59;;;;;;;5.10;3.40;;;;;;;19.54;39.62;97209.31;10095830;29;20057;-56
2022/03/06 02:38:19;;;;;;;3.42;2.60;;;;;;;19.53;39.63;97204.22;10096046;29;20065;-56
2022/03/06 02:43:39;;;;;;;3.92;2.78;;;;;;;19.53;39.57;97213.13;10095755;29;20132;-55
2022/03/06 02:48:58;;;;;;;3.38;2.78;;;;;;;19.50;39.60;97213.78;10095611;29;20053;-56
2022/03/06 02:54:20;;;;;;;3.70;3.00;;;;;;;19.49;39.74;97214.06;10088609;29;20081;-55
2022/03/06 02:59:39;;;;;;;3.88;3.00;;;;;;;19.48;39.68;97210.59;10095859;29;20068;-55
2022/03/06 03:05:00;;;;;;;3.33;2.92;;;;;;;19.46;39.65;97215.47;10093254;29;20061;-55
2022/03/06 03:10:25;;;;;;;3.28;2.72;;;;;;;19.44;39.49;97212.28;10094548;29;20064;-55
2022/03/06 03:15:44;;;;;;;3.42;2.75;;;;;;;19.44;39.37;97217.69;10105197;29;20048;-55
2022/03/06 03:21:03;;;;;;;3.72;2.70;;;;;;;19.42;39.29;97219.13;10083001;29;20089;-56
2022/03/06 03:26:23;;;;;;;3.38;2.80;;;;;;;19.40;39.28;97214.03;10098987;29;20056;-55
2022/03/06 03:31:43;;;;;;;3.38;2.95;;;;;;;19.38;39.23;97218.94;10094688;29;20061;-55
2022/03/06 03:37:03;;;;;;;3.72;3.00;;;;;;;19.37;39.22;97222.78;10107079;29;20064;-56
2022/03/06 03:42:23;;;;;;;4.03;3.00;;;;;;;19.34;39.28;97226.88;10093887;29;20075;-55
2022/03/06 03:47:43;;;;;;;2.83;2.45;;;;;;;19.34;39.20;97228.78;10095387;29;20064;-55
2022/03/06 03:53:02;;;;;;;5.50;3.03;;;;;;;19.31;39.24;97227.53;10097043;29;20072;-55
2022/03/06 03:58:21;;;;;;;3.38;2.70;;;;;;;19.30;39.15;97231.31;10101556;29;20057;-55
2022/03/06 04:03:40;;;;;;;3.83;3.03;;;;;;;19.30;39.20;97235.94;10099700;29;20105;-56
2022/03/06 04:09:00;;;;;;;4.05;2.80;;;;;;;19.28;39.03;97235.44;10100907;29;20061;-56
2022/03/06 04:14:19;;;;;;;3.17;2.50;;;;;;;19.26;39.03;97238.44;10100427;29;20106;-55
2022/03/06 04:19:39;;;;;;;3.53;3.00;;;;;;;19.24;38.94;97235.25;10099901;29;20049;-56
2022/03/06 04:24:59;;;;;;;3.10;2.80;;;;;;;19.23;38.94;97249.06;10095103;29;20057;-55
2022/03/06 04:30:19;;;;;;;3.33;2.67;;;;;;;19.22;38.75;97247.50;10099430;29;20064;-55
2022/03/06 04:35:38;;;;;;;4.15;2.53;;;;;;;19.20;38.86;97249.72;10100782;29;20067;-55
2022/03/06 04:40:58;;;;;;;2.80;2.55;;;;;;;19.17;39.01;97246.53;10099953;29;20060;-55
2022/03/06 04:46:17;;;;;;;3.28;2.63;;;;;;;19.16;38.85;97254.94;10100368;29;20057;-55
2022/03/06 04:51:37;;;;;;;2.80;2.50;;;;;;;19.13;38.90;97253.66;10103054;29;20045;-55
2022/03/06 04:56:56;;;;;;;2.90;2.60;;;;;;;19.12;38.68;97260.16;10100038;29;20057;-55
2022/03/06 05:02:16;;;;;;;3.63;2.60;;;;;;;19.10;38.68;97248.06;10099435;29;20378;-56
2022/03/06 05:07:35;;;;;;;2.75;2.45;;;;;;;19.10;38.74;97256.97;10098288;29;20057;-56
2022/03/06 05:12:55;;;;;;;2.80;2.47;;;;;;;19.07;38.54;97254.09;10109410;29;20060;-56
2022/03/06 05:18:14;;;;;;;3.60;2.75;;;;;;;19.07;38.50;97248.69;10097777;29;20065;-55
2022/03/06 05:23:34;;;;;;;3.60;2.60;;;;;;;19.04;38.73;97252.81;10099378;29;20065;-56
2022/03/06 05:28:54;;;;;;;3.30;2.53;;;;;;;19.04;38.66;97257.41;10100693;29;20424;-56
2022/03/06 05:34:14;;;;;;;3.03;2.50;;;;;;;19.02;38.57;97252.31;10103557;29;20041;-55
2022/03/06 05:39:33;;;;;;;3.05;2.58;;;;;;;19.01;38.56;97255.31;10092845;29;20082;-55
2022/03/06 05:44:53;;;;;;;2.85;2.33;;;;;;;18.98;38.39;97247.88;10098043;29;20113;-54
2022/03/06 05:50:13;;;;;;;2.58;2.25;;;;;;;18.98;38.61;97258.66;10097890;29;20056;-55
2022/03/06 05:55:33;;;;;;;3.35;2.50;;;;;;;18.98;38.52;97253.25;10097705;29;20068;-55
2022/03/06 06:00:52;;;;;;;3.40;2.78;;;;;;;18.96;38.44;97250.88;10097698;29;20049;-55
2022/03/06 06:06:12;;;;;;;2.95;2.65;;;;;;;18.99;38.55;97249.44;10094879;29;20065;-55
2022/03/06 06:11:32;;;;;;;3.35;2.38;;;;;;;19.00;38.58;97251.84;10095437;29;20124;-55
2022/03/06 06:16:51;;;;;;;2.75;2.45;;;;;;;19.01;38.26;97241.81;10095345;29;20064;-56
2022/03/06 06:22:11;;;;;;;3.80;2.53;;;;;;;19.01;38.43;97258.81;10094537;29;20060;-55
2022/03/06 06:27:31;;;;;;;2.50;2.30;;;;;;;19.01;38.24;97248.00;10095129;29;20397;-55
2022/03/06 06:32:50;;;;;;;2.95;2.50;;;;;;;19.02;37.95;97255.03;10097293;29;20067;-55
2022/03/06 06:38:10;;;;;;;2.53;2.33;;;;;;;19.03;38.16;97258.50;10094343;29;20049;-55
2022/03/06 06:43:30;;;;;;;2.83;2.40;;;;;;;19.03;38.09;97253.91;10093739;29;20437;-56
2022/03/06 06:48:49;;;;;;;3.30;2.80;;;;;;;19.03;38.24;97262.00;10100796;29;20048;-56
2022/03/06 06:54:09;;;;;;;3.30;2.67;;;;;;;19.02;38.11;97260.44;10093541;29;20412;-56
2022/03/06 06:59:28;;;;;;;2.92;2.55;;;;;;;19.02;38.05;97271.22;10094620;29;20121;-54
2022/03/06 07:04:48;;;;;;;2.40;2.20;;;;;;;19.05;38.12;97269.81;10093378;29;20436;-55
2022/03/06 07:10:08;;;;;;;2.58;2.25;;;;;;;19.05;38.26;97265.22;10092053;29;20057;-55
2022/03/06 07:15:29;;;;;;;3.17;2.45;;;;;;;19.07;38.10;97273.81;10090125;29;20064;-55
2022/03/06 07:20:49;;;;;;;2.63;2.28;;;;;;;19.10;38.13;97266.97;10095060;29;20077;-55
2022/03/06 07:26:09;;;;;;;2.45;2.20;;;;;;;19.12;38.14;97275.56;10095190;29;20057;-55
2022/03/06 07:31:28;;;;;;;2.65;2.28;;;;;;;19.16;38.28;97288.13;10093972;29;20049;-55
2022/03/06 07:36:48;;;;;;;2.35;2.10;;;;;;;19.20;38.37;97288.31;10093437;29;20049;-55
2022/03/06 07:42:08;;;;;;;2.60;2.13;;;;;;;19.23;38.44;97276.91;10095400;29;20057;-55
2022/03/06 07:47:27;;;;;;;2.30;2.10;;;;;;;19.27;38.60;97283.28;10088050;29;20053;-55
2022/03/06 07:52:47;;;;;;;2.88;2.20;;;;;;;19.30;38.59;97284.56;10093876;29;20084;-55
2022/03/06 07:58:06;;;;;;;2.25;2.03;;;;;;;19.35;38.58;97279.81;10094692;29;20425;-55
2022/03/06 08:03:25;;;;;;;2.60;2.10;;;;;;;19.41;38.50;97279.69;10099712;29;20052;-55
2022/03/06 08:08:44;;;;;;;2.83;2.03;;;;;;;19.46;38.86;97280.31;10093099;29;20053;-55
2022/03/06 08:14:04;;;;;;;1.83;1.73;;;;;;;19.52;39.03;97279.09;10093115;29;20073;-55
2022/03/06 08:19:23;;;;;;;3.75;2.38;;;;;;;19.56;39.03;97271.97;10092795;29;20090;-56
2022/03/06 08:24:42;;;;;;;2.25;2.05;;;;;;;19.62;38.96;97275.31;10094906;29;20053;-55
2022/03/06 08:30:03;;;;;;;2.22;2.03;;;;;;;19.66;39.08;97278.19;10093524;29;20831;-55
2022/03/06 08:35:23;;;;;;;4.07;2.10;;;;;;;19.69;38.68;97267.53;10078861;29;20056;-56
2022/03/06 08:40:42;;;;;;;2.38;2.10;;;;;;;19.74;38.71;97270.13;10093325;29;20057;-55
2022/03/06 08:46:03;;;;;;;2.28;2.05;;;;;;;19.82;38.81;97273.19;10099008;29;20109;-56
2022/03/06 08:51:22;;;;;;;2.08;1.90;;;;;;;19.86;38.61;97269.53;10100293;29;20129;-56
2022/03/06 08:56:42;;;;;;;2.83;1.90;;;;;;;19.90;38.41;97278.63;10099112;29;20053;-55
2022/03/06 09:02:03;;;;;;;2.13;1.90;;;;;;;19.94;38.38;97273.38;10105752;29;20055;-56
2022/03/06 09:07:23;;;;;;;2.03;1.70;;;;;;;19.98;38.25;97279.75;10088611;29;20048;-56
2022/03/06 09:12:43;;;;;;;2.95;1.50;;;;;;;20.01;38.29;97276.38;10096991;29;20053;-57
2022/03/06 09:18:04;;;;;;;2.75;2.00;;;;;;;20.04;38.79;97285.81;10097748;29;20081;-56
2022/03/06 09:23:24;;;;;;;2.17;1.98;;;;;;;20.07;39.06;97282.44;10080386;29;20072;-48
2022/03/06 09:28:43;;;;;;;4.70;1.80;;;;;;;20.07;39.34;97277.88;10097552;29;20462;-55
2022/03/06 09:34:03;;;;;;;2.30;1.55;;;;;;;20.10;39.39;97273.72;10079272;29;20068;-58
2022/03/06 09:39:22;;;;;;;2.00;1.65;;;;;;;20.14;39.45;97272.75;10093797;29;20421;-57
2022/03/06 09:44:45;;;;;;;2.20;1.75;;;;;;;20.16;39.72;97272.44;10062647;29;20068;-56
2022/03/06 09:50:06;;;;;;;2.10;1.70;;;;;;;20.18;39.42;97272.94;10075298;29;20050;-56
2022/03/06 09:55:27;;;;;;;3.50;1.70;;;;;;;20.18;39.28;97267.50;10070453;29;20061;-56
2022/03/06 10:00:46;;;;;;;2.08;1.80;;;;;;;20.19;38.95;97271.00;10073719;29;20394;-56
2022/03/06 10:06:07;;;;;;;1.90;1.80;;;;;;;20.19;38.03;97271.00;10071565;29;20057;-57
2022/03/06 10:11:27;;;;;;;3.58;1.90;;;;;;;20.19;38.56;97263.72;10067532;29;20064;-57
2022/03/06 10:17:20;;;;;;;2.33;1.80;;;;;;;20.20;37.79;97268.00;10085522;29;20406;-57
2022/03/06 10:22:41;;;;;;;4.50;2.10;;;;;;;20.21;37.97;97261.50;10085148;29;20586;-56
2022/03/06 10:28:00;;;;;;;7.43;2.13;;;;;;;20.22;37.80;97263.06;10087919;29;20402;-56
2022/03/06 10:33:21;;;;;;;3.67;2.08;;;;;;;20.21;37.54;97269.59;10074621;29;20060;-56
2022/03/06 10:38:41;;;;;;;3.80;2.28;;;;;;;20.21;37.60;97266.09;10096856;29;20515;-56
2022/03/06 10:44:00;;;;;;;3.78;2.00;;;;;;;20.20;37.58;97253.69;10077884;29;20064;-57
2022/03/06 10:49:20;;;;;;;3.33;2.15;;;;;;;20.21;37.53;97266.09;10080114;29;20501;-57
2022/03/06 10:55:00;;;;;;;2.88;2.13;;;;;;;20.21;37.37;97257.97;10072224;29;20457;-56
2022/03/06 11:00:19;;;;;;;5.65;2.17;;;;;;;20.21;37.42;97258.78;10072741;29;20575;-56
2022/03/06 11:05:44;;;;;;;3.45;2.67;;;;;;;20.17;34.33;97252.41;10084794;29;20288;-56
2022/03/06 11:11:08;;;;;;;4.88;2.58;;;;;;;20.17;36.30;97251.59;10091895;29;20059;-57
2022/03/06 11:16:29;;;;;;;3.10;2.30;;;;;;;20.15;36.53;97244.63;10078545;29;20461;-58
2022/03/06 11:21:50;;;;;;;4.80;2.47;;;;;;;20.18;36.88;97243.16;10093231;29;20053;-58
2022/03/06 11:27:16;;;;;;;6.25;4.10;;;;;;;20.13;32.48;97232.50;10087186;29;20060;-56
2022/03/06 11:32:37;;;;;;;8.25;5.53;;;;;;;19.87;26.08;97232.47;10086572;29;20490;-57
2022/03/06 11:37:58;;;;;;;12.98;6.68;;;;;;;19.59;23.71;97230.00;10086060;29;20041;-56
2022/03/06 11:43:30;;;;;;;18.73;6.53;;;;;;;19.56;29.25;97219.81;10091192;29;20053;-56
2022/03/06 11:48:50;;;;;;;24.67;8.55;;;;;;;19.71;32.79;97207.75;10069975;29;20053;-56
2022/03/06 11:54:15;;;;;;;22.33;7.47;;;;;;;19.84;34.46;97209.56;10084885;29;20500;-56
2022/03/06 11:59:36;;;;;;;10.30;5.93;;;;;;;19.53;27.12;97198.81;10092971;29;20519;-56
2022/03/06 12:04:57;;;;;;;15.70;8.30;;;;;;;19.62;33.71;97198.84;10090841;29;20056;-56
2022/03/06 12:10:18;;;;;;;8.00;5.22;;;;;;;19.62;27.40;97196.13;10083189;29;20057;-56
2022/03/06 12:15:37;;;;;;;14.70;6.80;;;;;;;19.66;33.34;97194.38;10095404;29;20061;-55
2022/03/06 12:20:56;;;;;;;12.75;7.10;;;;;;;19.74;36.02;97196.38;10099780;29;20060;-56
2022/03/06 12:26:42;;;;;;;8.65;6.07;;;;;;;19.79;34.02;97190.78;10071756;29;20478;-55
2022/03/06 12:32:24;;;;;;;10.38;6.07;;;;;;;19.82;33.31;97183.97;10075881;29;20132;-57
2022/03/06 12:37:50;;;;;;;11.48;7.40;;;;;;;19.85;34.18;97177.91;10094929;29;20071;-57
2022/03/06 12:43:10;;;;;;;9.70;7.40;;;;;;;19.85;34.47;97177.91;10098683;29;20061;-57
2022/03/06 12:48:30;;;;;;;11.10;7.20;;;;;;;19.84;35.43;97169.03;10070232;29;20057;-57
2022/03/06 12:53:49;;;;;;;12.48;6.90;;;;;;;19.85;36.44;97176.00;10090546;29;20481;-56
2022/03/06 12:59:15;;;;;;;9.25;5.93;;;;;;;19.82;35.72;97163.13;10096586;29;20049;-57
2022/03/06 13:04:34;;;;;;;8.25;5.63;;;;;;;19.82;34.48;97165.06;10075643;29;20049;-56
2022/03/06 13:09:58;;;;;;;10.98;5.53;;;;;;;19.79;34.10;97158.34;10082610;29;20470;-56
2022/03/06 13:15:19;;;;;;;7.65;5.47;;;;;;;19.77;33.41;97155.16;10094761;29;20057;-56
2022/03/06 13:20:40;;;;;;;7.65;5.28;;;;;;;19.74;35.57;97156.59;10087388;29;20522;-55
2022/03/06 13:26:00;;;;;;;7.45;4.78;;;;;;;19.74;36.02;97161.22;10080210;29;20080;-53
2022/03/06 13:31:20;;;;;;;7.60;4.80;;;;;;;19.75;36.40;97157.41;10077951;29;20057;-56
2022/03/06 13:36:41;;;;;;;8.80;4.75;;;;;;;19.74;36.64;97159.31;10088804;29;20065;-56
2022/03/06 13:42:00;;;;;;;7.15;4.18;;;;;;;19.74;36.92;97153.13;10088202;29;20100;-48
2022/03/06 13:47:20;;;;;;;6.40;4.38;;;;;;;19.73;37.20;97159.63;10095091;29;20060;-52
2022/03/06 13:52:39;;;;;;;7.05;4.30;;;;;;;19.72;37.57;97158.84;10080679;29;20489;-52
2022/03/06 13:58:00;;;;;;;5.82;3.80;;;;;;;19.72;37.81;97161.53;10090125;29;20101;-52
2022/03/06 14:03:33;;;;;;;5.90;4.45;;;;;;;19.70;38.29;97160.25;10097781;29;20635;-52
2022/03/06 14:08:53;;;;;;;6.57;4.05;;;;;;;19.70;38.58;97163.72;10093171;29;20053;-48
2022/03/06 14:14:12;;;;;;;7.28;3.70;;;;;;;19.71;38.52;97161.81;10087821;29;20056;-51
2022/03/06 14:19:32;;;;;;;5.78;3.70;;;;;;;19.71;38.73;97167.22;10095077;29;20072;-58
2022/03/06 14:24:52;;;;;;;4.30;3.50;;;;;;;19.70;38.97;97157.53;10089050;29;20450;-57
2022/03/06 14:30:12;;;;;;;4.75;3.45;;;;;;;19.70;39.03;97177.25;10070252;29;20105;-55
2022/03/06 14:35:31;;;;;;;7.22;3.33;;;;;;;19.71;39.06;97167.22;10062365;29;20407;-57
2022/03/06 14:40:50;;;;;;;5.43;3.28;;;;;;;19.70;39.32;97176.47;10070684;29;20053;-56
2022/03/06 14:46:14;;;;;;;4.50;2.97;;;;;;;19.68;38.96;97181.34;10090175;29;20048;-59
2022/03/06 14:51:34;;;;;;;7.30;3.33;;;;;;;19.65;39.58;97179.28;10085546;29;20044;-57
2022/03/06 14:56:54;;;;;;;6.75;3.50;;;;;;;19.63;39.34;97171.50;10091090;29;20061;-57
2022/03/06 15:02:14;;;;;;;7.65;3.58;;;;;;;19.63;39.18;97176.13;10088848;29;20049;-56
2022/03/06 15:07:33;;;;;;;6.05;3.00;;;;;;;19.63;39.62;97178.81;10089086;29;20494;-57
2022/03/06 15:12:52;;;;;;;6.13;2.95;;;;;;;19.61;40.09;97171.03;10092776;29;20473;-56
2022/03/06 15:18:12;;;;;;;4.93;2.97;;;;;;;19.60;39.98;97166.75;10085477;29;20057;-55
2022/03/06 15:23:32;;;;;;;6.88;2.80;;;;;;;19.59;40.38;97175.94;10081952;29;20056;-56
2022/03/06 15:28:52;;;;;;;4.53;2.88;;;;;;;19.58;40.69;97176.25;10090235;29;20059;-57
2022/03/06 15:34:13;;;;;;;5.55;3.00;;;;;;;19.58;40.72;97176.25;10092329;29;20049;-57
2022/03/06 15:39:33;;;;;;;6.05;2.92;;;;;;;19.57;40.95;97183.56;10090210;29;20064;-57
2022/03/06 15:44:52;;;;;;;6.50;2.85;;;;;;;19.54;40.44;97179.59;10077827;29;20210;-57
2022/03/06 15:50:13;;;;;;;4.28;3.00;;;;;;;19.53;40.37;97172.59;10086744;29;20051;-57
2022/03/06 15:55:32;;;;;;;5.72;2.80;;;;;;;19.51;40.19;97188.31;10100716;29;20544;-57
2022/03/06 16:00:52;;;;;;;4.70;2.50;;;;;;;19.51;40.51;97182.13;10097684;29;20272;-58
2022/03/06 16:06:12;;;;;;;6.47;2.60;;;;;;;19.51;40.70;97190.25;10094972;29;20578;-58
2022/03/06 16:11:32;;;;;;;4.50;2.83;;;;;;;19.49;40.88;97193.25;10085233;29;20056;-58
2022/03/06 16:16:52;;;;;;;9.52;6.00;;;;;;;19.08;28.88;97199.78;10095948;29;20069;-56
2022/03/06 16:22:11;;;;;;;8.35;6.72;;;;;;;18.44;24.66;97191.13;10101616;29;20594;-56
2022/03/06 16:27:30;;;;;;;9.02;6.50;;;;;;;-146.19;100.00;65364.44;10096886;29;20137;-56
2022/03/06 16:32:50;;;;;;;10.07;5.68;;;;;;;17.95;24.60;97213.28;10101498;29;20060;-58
2022/03/06 16:38:09;;;;;;;6.22;5.13;;;;;;;18.12;28.67;97203.75;10094011;29;20617;-57
2022/03/06 16:43:30;;;;;;;6.38;4.47;;;;;;;18.42;30.84;97198.72;10094262;29;20505;-57
2022/03/06 16:48:51;;;;;;;6.57;4.57;;;;;;;18.61;31.95;97199.34;10082778;29;20061;-57
2022/03/06 16:54:10;;;;;;;6.85;4.40;;;;;;;18.74;33.43;97206.56;10085083;29;20416;-58
2022/03/06 16:59:30;;;;;;;7.85;6.03;;;;;;;18.84;35.21;97205.53;10100040;29;20064;-57
2022/03/06 17:04:49;;;;;;;7.65;5.30;;;;;;;18.90;35.79;97211.59;10097080;29;20068;-61
2022/03/06 17:10:08;;;;;;;8.43;4.85;;;;;;;18.96;36.09;97223.88;10082727;29;20121;-60
2022/03/06 17:15:29;;;;;;;6.95;4.93;;;;;;;19.01;36.64;97221.00;10095588;29;20060;-63
2022/03/06 17:20:48;;;;;;;7.32;4.45;;;;;;;19.05;36.74;97224.72;10094537;29;20079;-61
2022/03/06 17:26:08;;;;;;;5.40;3.95;;;;;;;19.10;37.08;97229.97;10088714;29;20054;-57
2022/03/06 17:31:28;;;;;;;7.82;4.00;;;;;;;19.15;37.46;97227.13;10099592;29;20042;-57
2022/03/06 17:36:48;;;;;;;4.82;3.58;;;;;;;19.19;37.50;97231.91;10094159;29;20068;-60
2022/03/06 17:42:08;;;;;;;4.00;3.42;;;;;;;19.24;37.95;97234.47;10094453;29;20118;-60
2022/03/06 17:47:31;;;;;;;5.13;3.20;;;;;;;19.27;38.54;97245.47;10095315;29;20065;-59
2022/03/06 17:52:50;;;;;;;6.13;3.97;;;;;;;19.33;38.58;97246.91;10092458;29;20037;-58
2022/03/06 17:58:11;;;;;;;4.50;3.53;;;;;;;19.39;38.93;97254.91;10091826;29;20501;-58
2022/03/06 18:03:32;;;;;;;6.10;3.40;;;;;;;19.43;39.07;97263.97;10093568;29;20065;-56
2022/03/06 18:08:51;;;;;;;4.05;3.40;;;;;;;19.47;39.18;97254.13;10093401;29;20073;-57
2022/03/06 18:14:11;;;;;;;4.28;3.30;;;;;;;19.52;39.34;97259.38;10089802;29;20550;-55
2022/03/06 18:19:31;;;;;;;4.07;3.13;;;;;;;19.57;39.28;97259.25;10090202;29;20053;-57
2022/03/06 18:24:52;;;;;;;3.78;3.00;;;;;;;19.62;39.37;97266.41;10097653;29;20563;-58
2022/03/06 18:30:12;;;;;;;4.50;3.20;;;;;;;19.66;39.51;97267.38;10098622;29;20053;-54
2022/03/06 18:35:35;;;;;;;10.98;2.90;;;;;;;19.70;39.67;97269.16;10089979;29;20060;-53
2022/03/06 18:40:54;;;;;;;4.07;3.20;;;;;;;19.73;39.88;97267.75;10093309;29;20382;-52
2022/03/06 18:46:15;;;;;;;4.40;3.22;;;;;;;19.77;40.04;97276.03;10095847;29;20057;-53
2022/03/06 18:51:38;;;;;;;5.13;3.28;;;;;;;19.81;40.20;97280.47;10086777;29;20420;-55
2022/03/06 18:56:57;;;;;;;3.38;2.80;;;;;;;19.84;40.73;97282.56;10088492;29;20446;-54
2022/03/06 19:02:17;;;;;;;3.20;2.65;;;;;;;19.87;41.19;97283.84;10086086;29;20534;-53
2022/03/06 19:07:39;;;;;;;4.05;3.30;;;;;;;19.87;41.42;97271.13;10089383;29;20049;-54
2022/03/06 19:12:59;;;;;;;4.47;2.72;;;;;;;19.90;41.85;97277.81;10074389;29;20608;-55
2022/03/06 19:18:18;;;;;;;4.57;3.03;;;;;;;19.92;42.18;97281.00;10073643;29;20513;-56
2022/03/06 19:23:38;;;;;;;3.90;2.90;;;;;;;19.94;42.36;97284.97;10082108;29;20131;-56
2022/03/06 19:28:58;;;;;;;4.85;3.25;;;;;;;19.95;42.60;97286.59;10089715;29;20060;-60
2022/03/06 19:34:17;;;;;;;5.95;2.80;;;;;;;19.97;42.70;97288.16;10075738;29;20057;-60
2022/03/06 19:39:37;;;;;;;5.78;2.95;;;;;;;19.99;42.84;97299.47;10073451;29;20057;-60
2022/03/06 19:44:56;;;;;;;6.03;3.00;;;;;;;19.99;43.00;97296.75;10073915;29;20064;-59
2022/03/06 19:50:18;;;;;;;5.38;3.05;;;;;;;20.00;43.15;97296.44;10070419;29;20068;-59
2022/03/06 19:55:37;;;;;;;6.25;2.83;;;;;;;20.00;43.48;97303.78;10064406;29;20072;-58
2022/03/06 20:00:57;;;;;;;6.68;3.13;;;;;;;20.00;43.36;97304.56;10067584;29;20536;-60
2022/03/06 20:06:17;;;;;;;5.07;2.88;;;;;;;20.01;43.65;97311.56;10086928;29;20040;-56
2022/03/06 20:11:37;;;;;;;5.82;2.60;;;;;;;20.04;43.84;97312.84;10093416;29;20057;-58
2022/03/06 20:16:57;;;;;;;5.18;3.00;;;;;;;20.02;44.01;97315.84;10088843;29;20044;-58
2022/03/06 20:22:16;;;;;;;4.97;2.97;;;;;;;20.03;43.87;97324.75;10096795;29;20049;-57
2022/03/06 20:27:36;;;;;;;5.25;2.80;;;;;;;20.03;43.70;97332.88;10082469;29;20049;-57
2022/03/06 20:32:56;;;;;;;4.70;2.75;;;;;;;20.03;43.67;97332.88;10083154;29;20085;-57
2022/03/06 20:38:15;;;;;;;3.50;2.50;;;;;;;20.03;43.46;97330.16;10097791;29;20048;-58
2022/03/06 20:43:34;;;;;;;4.43;2.75;;;;;;;20.02;43.46;97334.78;10099283;29;20477;-58
2022/03/06 20:48:55;;;;;;;6.05;3.25;;;;;;;20.02;43.28;97337.50;10095490;29;20057;-58
2022/03/06 20:54:19;;;;;;;6.75;3.20;;;;;;;20.02;43.18;97334.78;10097616;29;20049;-58
2022/03/06 20:59:39;;;;;;;5.15;3.28;;;;;;;20.02;43.24;97334.00;10092195;29;20504;-57
2022/03/06 21:04:58;;;;;;;6.22;3.38;;;;;;;20.00;43.21;97337.00;10092122;29;20061;-57
2022/03/06 21:10:18;;;;;;;7.13;3.72;;;;;;;20.01;43.10;97340.50;10087956;29;20156;-56
2022/03/06 21:15:37;;;;;;;10.63;8.15;;;;;;;19.53;29.81;97333.94;10066796;29;20058;-57
2022/03/06 21:20:57;;;;;;;9.35;5.28;;;;;;;19.52;36.29;97340.44;10084842;29;20071;-58
2022/03/06 21:26:17;;;;;;;11.48;5.95;;;;;;;19.64;39.01;97345.25;10093952;29;20060;-58
2022/03/06 21:31:37;;;;;;;9.20;5.13;;;;;;;19.70;38.78;97346.75;10092289;29;20102;-58
2022/03/06 21:36:57;;;;;;;9.30;5.45;;;;;;;19.75;38.06;97343.91;10089575;29;20045;-58
2022/03/06 21:42:16;;;;;;;7.78;4.65;;;;;;;19.77;37.93;97343.63;10094234;29;20109;-58
2022/03/06 21:47:36;;;;;;;9.30;5.20;;;;;;;19.78;37.97;97340.59;10092272;29;20057;-58
2022/03/06 21:52:56;;;;;;;9.00;5.03;;;;;;;19.79;37.91;97344.88;10098005;29;20076;-57
2022/03/06 21:58:16;;;;;;;7.43;4.80;;;;;;;19.80;38.06;97342.97;10095218;29;20560;-58
2022/03/06 22:03:36;;;;;;;6.97;4.57;;;;;;;19.79;38.01;97342.19;10093445;29;20057;-58
2022/03/06 22:08:55;;;;;;;6.30;4.57;;;;;;;19.80;37.95;97342.97;10093685;29;20117;-58
2022/03/06 22:14:14;;;;;;;7.65;4.95;;;;;;;19.79;38.12;97344.88;10091097;29;20481;-58
2022/03/06 22:19:34;;;;;;;7.07;4.38;;;;;;;19.79;38.20;97344.09;10094137;29;20061;-57
2022/03/06 22:24:53;;;;;;;7.00;4.32;;;;;;;19.78;38.08;97343.31;10093156;29;20069;-58
2022/03/06 22:30:14;;;;;;;5.75;4.30;;;;;;;19.77;38.29;97352.50;10089355;29;20061;-58
2022/03/06 22:35:33;;;;;;;7.05;4.43;;;;;;;19.77;38.17;97347.09;10093125;29;20079;-58
2022/03/06 22:40:52;;;;;;;6.95;4.25;;;;;;;19.75;38.27;97354.72;10095165;29;20057;-58
2022/03/06 22:46:12;;;;;;;5.97;4.30;;;;;;;19.75;38.33;97346.63;10094618;29;20052;-58
2022/03/06 22:51:31;;;;;;;7.20;4.60;;;;;;;19.73;38.33;97349.63;10100194;29;20052;-58
2022/03/06 22:56:50;;;;;;;5.65;4.03;;;;;;;19.73;38.31;97348.84;10095201;29;20428;-57
2022/03/06 23:02:10;;;;;;;6.78;3.90;;;;;;;19.70;38.46;97344.03;10094569;29;20057;-57
2022/03/06 23:07:30;;;;;;;5.82;4.05;;;;;;;19.70;38.42;97355.66;10094893;29;20079;-58
2022/03/06 23:12:49;;;;;;;6.60;4.00;;;;;;;19.70;38.49;97354.84;10098415;29;20416;-58
2022/03/06 23:18:09;;;;;;;4.38;3.88;;;;;;;19.67;38.37;97352.75;10086227;29;20060;-58
2022/03/06 23:23:28;;;;;;;5.35;4.07;;;;;;;19.66;38.48;97349.28;10100287;29;20492;-58
2022/03/06 23:28:48;;;;;;;5.35;3.63;;;;;;;19.65;38.34;97353.06;10092555;29;20068;-58
2022/03/06 23:34:07;;;;;;;5.75;3.90;;;;;;;19.63;38.37;97359.91;10094092;29;20064;-58
2022/03/06 23:39:27;;;;;;;5.28;3.60;;;;;;;19.62;38.45;97359.13;10094515;29;20676;-57
2022/03/06 23:44:47;;;;;;;5.82;3.92;;;;;;;19.61;38.53;97356.72;10093140;29;20497;-57
2022/03/06 23:50:07;;;;;;;5.20;4.15;;;;;;;19.60;38.44;97364.03;10093186;29;20045;-58
2022/03/06 23:55:27;;;;;;;5.72;3.83;;;;;;;19.57;38.47;97367.34;10095962;29;20076;-58
